<?xml version="1.0" encoding="UTF-8" standalone="no" ?>
<gpx xmlns="http://www.topografix.com/GPX/1/1" xmlns:xsi="http://www.w3.org/2001/XMLSchema-instance" xsi:schemaLocation="http://www.topografix.com/GPX/1/1 http://www.topografix.com/GPX/1/1/gpx.xsd" version="1.1" creator="VisuGPX - https://www.visugpx.com">
  <metadata>
    <name>maison des Plos - Saint-Guilhem-le-Désert</name>
    <desc><![CDATA[2016-03 - maison des Plos - Les Fenestrelles - Saint-Guilhem-le-Désert

[b]album[/b] : [url]https://goo.gl/photos/bF5jQEgVTtWVUvqg9[/url]
[img]https://3.bp.blogspot.com/-5S6fjTVSBhg/WNFLjNPG2HI/AAAAAAAAQ8k/9H8Ok4rdlzQnr3wH6o6fIhXMXm5gusQKgCLcB/s1600/2016-03_Plos_St-Guilhem_i.JPG[/img]
[b]Idées de randonnées dans la même région[/b]
Parcours : [url]https://www.visugpx.com/membres/24856/causses/saint-guilhem/[/url]
Photos : [url]https://jcvertygo.blogspot.com/p/saint-guilhem.html[/url]]]></desc>
  </metadata>
  <trk>
    <name><![CDATA[maison des Plos - Saint-Guilhem-le-Désert_1]]></name>
    <trkseg>
      <trkpt lat="43.72347" lon="3.55173">
        <ele>72.9</ele>
        <time>2016-03-13T10:41:25Z</time>
      </trkpt>
      <trkpt lat="43.72355" lon="3.55183">
        <ele>72.720520743617</ele>
        <time>2016-03-13T10:41:30Z</time>
      </trkpt>
      <trkpt lat="43.72363" lon="3.55178">
        <ele>72.720520743617</ele>
        <time>2016-03-13T10:41:35Z</time>
      </trkpt>
      <trkpt lat="43.72397" lon="3.55107">
        <ele>73.876506004205</ele>
        <time>2016-03-13T10:42:25Z</time>
      </trkpt>
      <trkpt lat="43.724" lon="3.55096">
        <ele>73.876506004205</ele>
        <time>2016-03-13T10:42:27Z</time>
      </trkpt>
      <trkpt lat="43.72413" lon="3.54976">
        <ele>76.562258466905</ele>
        <time>2016-03-13T10:43:52Z</time>
      </trkpt>
      <trkpt lat="43.72396" lon="3.54935">
        <ele>78.599973426134</ele>
        <time>2016-03-13T10:44:34Z</time>
      </trkpt>
      <trkpt lat="43.7239" lon="3.54935">
        <ele>78.599973426134</ele>
        <time>2016-03-13T10:44:34Z</time>
      </trkpt>
      <trkpt lat="43.72369" lon="3.54941">
        <ele>80.520363983309</ele>
        <time>2016-03-13T10:45:00Z</time>
      </trkpt>
      <trkpt lat="43.72354" lon="3.54939">
        <ele>82.585501262442</ele>
        <time>2016-03-13T10:45:33Z</time>
      </trkpt>
      <trkpt lat="43.72353" lon="3.5494">
        <ele>82.585501262442</ele>
        <time>2016-03-13T10:45:35Z</time>
      </trkpt>
      <trkpt lat="43.72346" lon="3.54944">
        <ele>84.50575043134</ele>
        <time>2016-03-13T10:45:46Z</time>
      </trkpt>
      <trkpt lat="43.72332" lon="3.54974">
        <ele>86.904839058501</ele>
        <time>2016-03-13T10:46:32Z</time>
      </trkpt>
      <trkpt lat="43.72322" lon="3.54979">
        <ele>89.07027682752</ele>
        <time>2016-03-13T10:47:14Z</time>
      </trkpt>
      <trkpt lat="43.72312" lon="3.54981">
        <ele>91.214024232079</ele>
        <time>2016-03-13T10:47:23Z</time>
      </trkpt>
      <trkpt lat="43.72254" lon="3.54964">
        <ele>94.090877887519</ele>
        <time>2016-03-13T10:49:31Z</time>
      </trkpt>
      <trkpt lat="43.72248" lon="3.54967">
        <ele>94.090877887519</ele>
        <time>2016-03-13T10:49:48Z</time>
      </trkpt>
      <trkpt lat="43.72239" lon="3.5496">
        <ele>97.200299780952</ele>
        <time>2016-03-13T10:50:30Z</time>
      </trkpt>
      <trkpt lat="43.72215" lon="3.54953">
        <ele>101.17731145673</ele>
        <time>2016-03-13T10:51:32Z</time>
      </trkpt>
      <trkpt lat="43.72212" lon="3.54954">
        <ele>101.17731145673</ele>
        <time>2016-03-13T10:51:32Z</time>
      </trkpt>
      <trkpt lat="43.72199" lon="3.54961">
        <ele>105.42505559771</ele>
        <time>2016-03-13T10:52:07Z</time>
      </trkpt>
      <trkpt lat="43.72197" lon="3.54958">
        <ele>105.42505559771</ele>
        <time>2016-03-13T10:52:15Z</time>
      </trkpt>
      <trkpt lat="43.72204" lon="3.54947">
        <ele>110.35753728999</ele>
        <time>2016-03-13T10:52:40Z</time>
      </trkpt>
      <trkpt lat="43.72185" lon="3.54941">
        <ele>116.27466129449</ele>
        <time>2016-03-13T10:53:36Z</time>
      </trkpt>
      <trkpt lat="43.72173" lon="3.54922">
        <ele>123.09073895995</ele>
        <time>2016-03-13T10:54:24Z</time>
      </trkpt>
      <trkpt lat="43.72172" lon="3.54922">
        <ele>123.09073895995</ele>
        <time>2016-03-13T10:54:25Z</time>
      </trkpt>
      <trkpt lat="43.72169" lon="3.5491">
        <ele>129.54479204456</ele>
        <time>2016-03-13T10:54:42Z</time>
      </trkpt>
      <trkpt lat="43.72162" lon="3.54912">
        <ele>129.54479204456</ele>
        <time>2016-03-13T10:55:01Z</time>
      </trkpt>
      <trkpt lat="43.7216" lon="3.54913">
        <ele>135.57194707661</ele>
        <time>2016-03-13T10:55:01Z</time>
      </trkpt>
      <trkpt lat="43.7216" lon="3.54907">
        <ele>135.57194707661</ele>
        <time>2016-03-13T10:55:20Z</time>
      </trkpt>
      <trkpt lat="43.72158" lon="3.54896">
        <ele>142.12920079587</ele>
        <time>2016-03-13T10:55:52Z</time>
      </trkpt>
      <trkpt lat="43.72158" lon="3.54886">
        <ele>142.12920079587</ele>
        <time>2016-03-13T10:56:05Z</time>
      </trkpt>
      <trkpt lat="43.7214" lon="3.54878">
        <ele>148.754247008</ele>
        <time>2016-03-13T10:56:19Z</time>
      </trkpt>
      <trkpt lat="43.72133" lon="3.54884">
        <ele>148.754247008</ele>
        <time>2016-03-13T10:56:44Z</time>
      </trkpt>
      <trkpt lat="43.72133" lon="3.5486">
        <ele>156.82728250074</ele>
        <time>2016-03-13T10:57:30Z</time>
      </trkpt>
      <trkpt lat="43.72134" lon="3.54858">
        <ele>156.82728250074</ele>
        <time>2016-03-13T10:57:54Z</time>
      </trkpt>
      <trkpt lat="43.72129" lon="3.54844">
        <ele>164.44796375202</ele>
        <time>2016-03-13T10:57:54Z</time>
      </trkpt>
      <trkpt lat="43.72117" lon="3.54849">
        <ele>171.39281647944</ele>
        <time>2016-03-13T10:58:28Z</time>
      </trkpt>
      <trkpt lat="43.72114" lon="3.54849">
        <ele>171.39281647944</ele>
        <time>2016-03-13T10:58:37Z</time>
      </trkpt>
      <trkpt lat="43.72115" lon="3.54847">
        <ele>171.39281647944</ele>
        <time>2016-03-13T10:58:38Z</time>
      </trkpt>
      <trkpt lat="43.7211" lon="3.54849">
        <ele>171.39281647944</ele>
        <time>2016-03-13T10:58:45Z</time>
      </trkpt>
      <trkpt lat="43.72081" lon="3.54883">
        <ele>179.49385706572</ele>
        <time>2016-03-13T10:59:53Z</time>
      </trkpt>
      <trkpt lat="43.72078" lon="3.54883">
        <ele>179.49385706572</ele>
        <time>2016-03-13T10:59:53Z</time>
      </trkpt>
      <trkpt lat="43.72075" lon="3.54876">
        <ele>179.49385706572</ele>
        <time>2016-03-13T11:00:28Z</time>
      </trkpt>
      <trkpt lat="43.72075" lon="3.54875">
        <ele>188.13561273704</ele>
        <time>2016-03-13T11:00:28Z</time>
      </trkpt>
      <trkpt lat="43.72078" lon="3.54857">
        <ele>196.53366179886</ele>
        <time>2016-03-13T11:00:54Z</time>
      </trkpt>
      <trkpt lat="43.72078" lon="3.54852">
        <ele>196.53366179886</ele>
        <time>2016-03-13T11:00:54Z</time>
      </trkpt>
      <trkpt lat="43.72056" lon="3.54832">
        <ele>205.03381452755</ele>
        <time>2016-03-13T11:01:30Z</time>
      </trkpt>
      <trkpt lat="43.72018" lon="3.54788">
        <ele>214.04493617141</ele>
        <time>2016-03-13T11:02:56Z</time>
      </trkpt>
      <trkpt lat="43.72015" lon="3.54779">
        <ele>214.04493617141</ele>
        <time>2016-03-13T11:03:11Z</time>
      </trkpt>
      <trkpt lat="43.72004" lon="3.54748">
        <ele>222.39071398972</ele>
        <time>2016-03-13T11:04:02Z</time>
      </trkpt>
      <trkpt lat="43.72015" lon="3.54719">
        <ele>230.9425140714</ele>
        <time>2016-03-13T11:05:07Z</time>
      </trkpt>
      <trkpt lat="43.72017" lon="3.54712">
        <ele>230.9425140714</ele>
        <time>2016-03-13T11:05:07Z</time>
      </trkpt>
      <trkpt lat="43.72019" lon="3.54713">
        <ele>230.9425140714</ele>
        <time>2016-03-13T11:05:28Z</time>
      </trkpt>
      <trkpt lat="43.72021" lon="3.54712">
        <ele>238.84764646683</ele>
        <time>2016-03-13T11:05:30Z</time>
      </trkpt>
      <trkpt lat="43.72027" lon="3.54701">
        <ele>246.1481420583</ele>
        <time>2016-03-13T11:05:46Z</time>
      </trkpt>
      <trkpt lat="43.72089" lon="3.54692">
        <ele>255.06317281392</ele>
        <time>2016-03-13T11:07:41Z</time>
      </trkpt>
      <trkpt lat="43.72107" lon="3.54685">
        <ele>264.1403476028</ele>
        <time>2016-03-13T11:08:34Z</time>
      </trkpt>
      <trkpt lat="43.72117" lon="3.54672">
        <ele>272.19707571597</ele>
        <time>2016-03-13T11:08:51Z</time>
      </trkpt>
      <trkpt lat="43.72142" lon="3.54656">
        <ele>279.4688464965</ele>
        <time>2016-03-13T11:09:28Z</time>
      </trkpt>
      <trkpt lat="43.72144" lon="3.54646">
        <ele>279.4688464965</ele>
        <time>2016-03-13T11:09:50Z</time>
      </trkpt>
      <trkpt lat="43.72142" lon="3.54636">
        <ele>286.23501527209</ele>
        <time>2016-03-13T11:10:19Z</time>
      </trkpt>
      <trkpt lat="43.72142" lon="3.54588">
        <ele>292.73293184192</ele>
        <time>2016-03-13T11:11:16Z</time>
      </trkpt>
      <trkpt lat="43.72142" lon="3.54585">
        <ele>292.73293184192</ele>
        <time>2016-03-13T11:11:39Z</time>
      </trkpt>
      <trkpt lat="43.72136" lon="3.54569">
        <ele>298.55687259896</ele>
        <time>2016-03-13T11:11:56Z</time>
      </trkpt>
      <trkpt lat="43.721" lon="3.54477">
        <ele>304.51100527073</ele>
        <time>2016-03-13T11:13:45Z</time>
      </trkpt>
      <trkpt lat="43.72096" lon="3.54471">
        <ele>304.51100527073</ele>
        <time>2016-03-13T11:13:50Z</time>
      </trkpt>
      <trkpt lat="43.72087" lon="3.54399">
        <ele>311.44710809893</ele>
        <time>2016-03-13T11:14:53Z</time>
      </trkpt>
      <trkpt lat="43.72061" lon="3.54334">
        <ele>318.74707554949</ele>
        <time>2016-03-13T11:15:37Z</time>
      </trkpt>
      <trkpt lat="43.72041" lon="3.54295">
        <ele>326.08908487808</ele>
        <time>2016-03-13T11:16:19Z</time>
      </trkpt>
      <trkpt lat="43.72034" lon="3.54281">
        <ele>332.72410633078</ele>
        <time>2016-03-13T11:16:38Z</time>
      </trkpt>
      <trkpt lat="43.72026" lon="3.54263">
        <ele>338.45698754336</ele>
        <time>2016-03-13T11:16:38Z</time>
      </trkpt>
      <trkpt lat="43.72009" lon="3.54237">
        <ele>343.61886198749</ele>
        <time>2016-03-13T11:17:06Z</time>
      </trkpt>
      <trkpt lat="43.71997" lon="3.54229">
        <ele>348.19407008069</ele>
        <time>2016-03-13T11:17:23Z</time>
      </trkpt>
      <trkpt lat="43.71995" lon="3.54232">
        <ele>348.19407008069</ele>
        <time>2016-03-13T11:17:35Z</time>
      </trkpt>
      <trkpt lat="43.71998" lon="3.54229">
        <ele>348.19407008069</ele>
        <time>2016-03-13T11:17:48Z</time>
      </trkpt>
      <trkpt lat="43.71992" lon="3.54218">
        <ele>351.97609383197</ele>
        <time>2016-03-13T11:18:04Z</time>
      </trkpt>
      <trkpt lat="43.7198" lon="3.54205">
        <ele>354.92774244153</ele>
        <time>2016-03-13T11:18:11Z</time>
      </trkpt>
      <trkpt lat="43.7197" lon="3.54198">
        <ele>357.15474952074</ele>
        <time>2016-03-13T11:18:21Z</time>
      </trkpt>
      <trkpt lat="43.71969" lon="3.54196">
        <ele>357.15474952074</ele>
        <time>2016-03-13T11:18:21Z</time>
      </trkpt>
      <trkpt lat="43.71963" lon="3.54186">
        <ele>358.713366335</ele>
        <time>2016-03-13T11:18:39Z</time>
      </trkpt>
      <trkpt lat="43.71984" lon="3.5412">
        <ele>359.70369130406</ele>
        <time>2016-03-13T11:19:37Z</time>
      </trkpt>
      <trkpt lat="43.71994" lon="3.54112">
        <ele>360.11442888246</ele>
        <time>2016-03-13T11:19:38Z</time>
      </trkpt>
      <trkpt lat="43.72001" lon="3.54101">
        <ele>360.13281412655</ele>
        <time>2016-03-13T11:19:53Z</time>
      </trkpt>
      <trkpt lat="43.72005" lon="3.54095">
        <ele>360.13281412655</ele>
        <time>2016-03-13T11:19:55Z</time>
      </trkpt>
      <trkpt lat="43.72061" lon="3.54014">
        <ele>361.54235955177</ele>
        <time>2016-03-13T11:21:22Z</time>
      </trkpt>
      <trkpt lat="43.7207" lon="3.54012">
        <ele>361.54235955177</ele>
        <time>2016-03-13T11:21:29Z</time>
      </trkpt>
      <trkpt lat="43.72091" lon="3.54001">
        <ele>362.99926896716</ele>
        <time>2016-03-13T11:21:53Z</time>
      </trkpt>
      <trkpt lat="43.72095" lon="3.53999">
        <ele>362.99926896716</ele>
        <time>2016-03-13T11:21:53Z</time>
      </trkpt>
      <trkpt lat="43.72097" lon="3.53999">
        <ele>362.99926896716</ele>
        <time>2016-03-13T11:21:55Z</time>
      </trkpt>
      <trkpt lat="43.72141" lon="3.53963">
        <ele>364.85877941133</ele>
        <time>2016-03-13T11:22:51Z</time>
      </trkpt>
      <trkpt lat="43.72154" lon="3.53953">
        <ele>365.79823585401</ele>
        <time>2016-03-13T11:23:52Z</time>
      </trkpt>
      <trkpt lat="43.72156" lon="3.53944">
        <ele>365.79823585401</ele>
        <time>2016-03-13T11:23:52Z</time>
      </trkpt>
      <trkpt lat="43.72149" lon="3.53828">
        <ele>366.34003014889</ele>
        <time>2016-03-13T11:25:18Z</time>
      </trkpt>
      <trkpt lat="43.72145" lon="3.53817">
        <ele>366.57614177482</ele>
        <time>2016-03-13T11:25:18Z</time>
      </trkpt>
      <trkpt lat="43.72142" lon="3.53804">
        <ele>366.60598998848</ele>
        <time>2016-03-13T11:25:41Z</time>
      </trkpt>
      <trkpt lat="43.72145" lon="3.53798">
        <ele>366.60598998848</ele>
        <time>2016-03-13T11:26:04Z</time>
      </trkpt>
      <trkpt lat="43.72147" lon="3.53769">
        <ele>365.92785771262</ele>
        <time>2016-03-13T11:26:21Z</time>
      </trkpt>
      <trkpt lat="43.72159" lon="3.5373">
        <ele>364.85232983844</ele>
        <time>2016-03-13T11:26:51Z</time>
      </trkpt>
      <trkpt lat="43.72163" lon="3.53726">
        <ele>364.85232983844</ele>
        <time>2016-03-13T11:26:51Z</time>
      </trkpt>
      <trkpt lat="43.72172" lon="3.53717">
        <ele>363.36951037376</ele>
        <time>2016-03-13T11:27:03Z</time>
      </trkpt>
      <trkpt lat="43.72173" lon="3.53716">
        <ele>363.36951037376</ele>
        <time>2016-03-13T11:27:03Z</time>
      </trkpt>
      <trkpt lat="43.72174" lon="3.53715">
        <ele>363.36951037376</ele>
        <time>2016-03-13T11:27:08Z</time>
      </trkpt>
      <trkpt lat="43.72187" lon="3.53688">
        <ele>361.60324981841</ele>
        <time>2016-03-13T11:27:33Z</time>
      </trkpt>
      <trkpt lat="43.72191" lon="3.53675">
        <ele>359.63795286323</ele>
        <time>2016-03-13T11:27:33Z</time>
      </trkpt>
      <trkpt lat="43.72197" lon="3.53668">
        <ele>359.63795286323</ele>
        <time>2016-03-13T11:27:52Z</time>
      </trkpt>
      <trkpt lat="43.72196" lon="3.53662">
        <ele>357.60966084546</ele>
        <time>2016-03-13T11:27:52Z</time>
      </trkpt>
      <trkpt lat="43.72196" lon="3.53631">
        <ele>355.58451319814</ele>
        <time>2016-03-13T11:28:12Z</time>
      </trkpt>
      <trkpt lat="43.72201" lon="3.53585">
        <ele>353.914679468</ele>
        <time>2016-03-13T11:28:44Z</time>
      </trkpt>
      <trkpt lat="43.72201" lon="3.53583">
        <ele>353.914679468</ele>
        <time>2016-03-13T11:28:45Z</time>
      </trkpt>
      <trkpt lat="43.72194" lon="3.53575">
        <ele>352.22358540858</ele>
        <time>2016-03-13T11:29:03Z</time>
      </trkpt>
      <trkpt lat="43.72178" lon="3.53572">
        <ele>350.67355516168</ele>
        <time>2016-03-13T11:29:25Z</time>
      </trkpt>
      <trkpt lat="43.72169" lon="3.53557">
        <ele>349.02123127692</ele>
        <time>2016-03-13T11:29:47Z</time>
      </trkpt>
      <trkpt lat="43.7218" lon="3.53529">
        <ele>347.43392100738</ele>
        <time>2016-03-13T11:30:12Z</time>
      </trkpt>
      <trkpt lat="43.72186" lon="3.5352">
        <ele>347.43392100738</ele>
        <time>2016-03-13T11:30:12Z</time>
      </trkpt>
      <trkpt lat="43.72219" lon="3.53489">
        <ele>345.97836722036</ele>
        <time>2016-03-13T11:30:55Z</time>
      </trkpt>
      <trkpt lat="43.72223" lon="3.53484">
        <ele>345.97836722036</ele>
        <time>2016-03-13T11:30:55Z</time>
      </trkpt>
      <trkpt lat="43.72235" lon="3.53465">
        <ele>344.77333232538</ele>
        <time>2016-03-13T11:31:14Z</time>
      </trkpt>
      <trkpt lat="43.7224" lon="3.53448">
        <ele>343.79729134657</ele>
        <time>2016-03-13T11:31:26Z</time>
      </trkpt>
      <trkpt lat="43.72242" lon="3.53447">
        <ele>343.79729134657</ele>
        <time>2016-03-13T11:31:30Z</time>
      </trkpt>
      <trkpt lat="43.72245" lon="3.53444">
        <ele>343.79729134657</ele>
        <time>2016-03-13T11:31:45Z</time>
      </trkpt>
      <trkpt lat="43.72237" lon="3.53336">
        <ele>343.80979258612</ele>
        <time>2016-03-13T11:33:00Z</time>
      </trkpt>
      <trkpt lat="43.72226" lon="3.53242">
        <ele>344.87433269639</ele>
        <time>2016-03-13T11:33:52Z</time>
      </trkpt>
      <trkpt lat="43.72275" lon="3.53282">
        <ele>346.4548219779</ele>
        <time>2016-03-13T11:35:08Z</time>
      </trkpt>
      <trkpt lat="43.72278" lon="3.53288">
        <ele>346.4548219779</ele>
        <time>2016-03-13T11:35:08Z</time>
      </trkpt>
      <trkpt lat="43.72354" lon="3.53252">
        <ele>348.70319693523</ele>
        <time>2016-03-13T11:37:49Z</time>
      </trkpt>
      <trkpt lat="43.72354" lon="3.5325">
        <ele>348.70319693523</ele>
        <time>2016-03-13T11:37:50Z</time>
      </trkpt>
      <trkpt lat="43.72349" lon="3.53239">
        <ele>350.64710223361</ele>
        <time>2016-03-13T11:38:08Z</time>
      </trkpt>
      <trkpt lat="43.72348" lon="3.53225">
        <ele>352.36775838706</ele>
        <time>2016-03-13T11:38:08Z</time>
      </trkpt>
      <trkpt lat="43.72339" lon="3.53197">
        <ele>354.48842012812</ele>
        <time>2016-03-13T11:38:35Z</time>
      </trkpt>
      <trkpt lat="43.7234" lon="3.5319">
        <ele>354.48842012812</ele>
        <time>2016-03-13T11:38:55Z</time>
      </trkpt>
      <trkpt lat="43.72343" lon="3.53189">
        <ele>354.48842012812</ele>
        <time>2016-03-13T11:39:00Z</time>
      </trkpt>
      <trkpt lat="43.7236" lon="3.53178">
        <ele>357.67122054036</ele>
        <time>2016-03-13T11:39:39Z</time>
      </trkpt>
      <trkpt lat="43.72383" lon="3.53131">
        <ele>361.28626402553</ele>
        <time>2016-03-13T11:40:22Z</time>
      </trkpt>
      <trkpt lat="43.7241" lon="3.53086">
        <ele>365.55598085975</ele>
        <time>2016-03-13T11:41:27Z</time>
      </trkpt>
      <trkpt lat="43.72413" lon="3.53081">
        <ele>365.55598085975</ele>
        <time>2016-03-13T11:41:29Z</time>
      </trkpt>
      <trkpt lat="43.72433" lon="3.53085">
        <ele>370.06438847354</ele>
        <time>2016-03-13T11:41:49Z</time>
      </trkpt>
      <trkpt lat="43.72434" lon="3.53085">
        <ele>370.06438847354</ele>
        <time>2016-03-13T11:41:50Z</time>
      </trkpt>
      <trkpt lat="43.72443" lon="3.53089">
        <ele>374.35305621319</ele>
        <time>2016-03-13T11:42:08Z</time>
      </trkpt>
      <trkpt lat="43.72452" lon="3.53083">
        <ele>378.40130032507</ele>
        <time>2016-03-13T11:42:08Z</time>
      </trkpt>
      <trkpt lat="43.72446" lon="3.53058">
        <ele>382.33462919065</ele>
        <time>2016-03-13T11:42:31Z</time>
      </trkpt>
      <trkpt lat="43.72441" lon="3.53028">
        <ele>386.38489268892</ele>
        <time>2016-03-13T11:42:50Z</time>
      </trkpt>
      <trkpt lat="43.72451" lon="3.53006">
        <ele>390.36272818738</ele>
        <time>2016-03-13T11:43:03Z</time>
      </trkpt>
      <trkpt lat="43.72461" lon="3.52996">
        <ele>394.38123788105</ele>
        <time>2016-03-13T11:43:22Z</time>
      </trkpt>
      <trkpt lat="43.72462" lon="3.52996">
        <ele>394.38123788105</ele>
        <time>2016-03-13T11:43:25Z</time>
      </trkpt>
      <trkpt lat="43.72465" lon="3.52996">
        <ele>394.38123788105</ele>
        <time>2016-03-13T11:43:30Z</time>
      </trkpt>
      <trkpt lat="43.72468" lon="3.52996">
        <ele>394.38123788105</ele>
        <time>2016-03-13T11:43:40Z</time>
      </trkpt>
      <trkpt lat="43.72486" lon="3.52987">
        <ele>398.8191189247</ele>
        <time>2016-03-13T11:44:08Z</time>
      </trkpt>
      <trkpt lat="43.72505" lon="3.52922">
        <ele>404.44438221983</ele>
        <time>2016-03-13T11:45:00Z</time>
      </trkpt>
      <trkpt lat="43.72514" lon="3.52878">
        <ele>410.16238321523</ele>
        <time>2016-03-13T11:45:31Z</time>
      </trkpt>
      <trkpt lat="43.72517" lon="3.52867">
        <ele>410.16238321523</ele>
        <time>2016-03-13T11:45:38Z</time>
      </trkpt>
      <trkpt lat="43.72518" lon="3.52849">
        <ele>415.88177223302</ele>
        <time>2016-03-13T11:45:50Z</time>
      </trkpt>
      <trkpt lat="43.72561" lon="3.52634">
        <ele>423.66723664316</ele>
        <time>2016-03-13T11:48:30Z</time>
      </trkpt>
      <trkpt lat="43.72561" lon="3.52632">
        <ele>423.66723664316</ele>
        <time>2016-03-13T11:48:35Z</time>
      </trkpt>
      <trkpt lat="43.72588" lon="3.52607">
        <ele>430.99774500955</ele>
        <time>2016-03-13T11:49:15Z</time>
      </trkpt>
      <trkpt lat="43.726" lon="3.5259">
        <ele>437.61614992808</ele>
        <time>2016-03-13T11:49:45Z</time>
      </trkpt>
      <trkpt lat="43.7262" lon="3.52564">
        <ele>443.86342900581</ele>
        <time>2016-03-13T11:49:52Z</time>
      </trkpt>
      <trkpt lat="43.72638" lon="3.52547">
        <ele>449.62406489281</ele>
        <time>2016-03-13T11:50:12Z</time>
      </trkpt>
      <trkpt lat="43.72681" lon="3.52459">
        <ele>455.58598009529</ele>
        <time>2016-03-13T11:51:25Z</time>
      </trkpt>
      <trkpt lat="43.72768" lon="3.52388">
        <ele>461.57848391581</ele>
        <time>2016-03-13T11:53:30Z</time>
      </trkpt>
      <trkpt lat="43.7279" lon="3.52356">
        <ele>466.89561293386</ele>
        <time>2016-03-13T11:53:44Z</time>
      </trkpt>
      <trkpt lat="43.72795" lon="3.52322">
        <ele>471.57785095207</ele>
        <time>2016-03-13T11:53:44Z</time>
      </trkpt>
      <trkpt lat="43.72801" lon="3.52322">
        <ele>471.57785095207</ele>
        <time>2016-03-13T11:54:15Z</time>
      </trkpt>
      <trkpt lat="43.72803" lon="3.52318">
        <ele>477.10689839742</ele>
        <time>2016-03-13T11:54:25Z</time>
      </trkpt>
      <trkpt lat="43.72826" lon="3.52285">
        <ele>482.02684161018</ele>
        <time>2016-03-13T11:54:48Z</time>
      </trkpt>
      <trkpt lat="43.72828" lon="3.52282">
        <ele>482.02684161018</ele>
        <time>2016-03-13T11:54:50Z</time>
      </trkpt>
      <trkpt lat="43.72833" lon="3.52275">
        <ele>486.43300793761</ele>
        <time>2016-03-13T11:54:55Z</time>
      </trkpt>
      <trkpt lat="43.72838" lon="3.5227">
        <ele>486.43300793761</ele>
        <time>2016-03-13T11:55:00Z</time>
      </trkpt>
      <trkpt lat="43.72842" lon="3.52265">
        <ele>490.34335197703</ele>
        <time>2016-03-13T11:55:05Z</time>
      </trkpt>
      <trkpt lat="43.72847" lon="3.5226">
        <ele>490.34335197703</ele>
        <time>2016-03-13T11:55:10Z</time>
      </trkpt>
      <trkpt lat="43.72852" lon="3.52255">
        <ele>493.73293590041</ele>
        <time>2016-03-13T11:55:15Z</time>
      </trkpt>
      <trkpt lat="43.72855" lon="3.52251">
        <ele>493.73293590041</ele>
        <time>2016-03-13T11:55:20Z</time>
      </trkpt>
      <trkpt lat="43.72861" lon="3.52246">
        <ele>496.68132125125</ele>
        <time>2016-03-13T11:55:25Z</time>
      </trkpt>
      <trkpt lat="43.72867" lon="3.52242">
        <ele>496.68132125125</ele>
        <time>2016-03-13T11:55:30Z</time>
      </trkpt>
      <trkpt lat="43.72873" lon="3.52238">
        <ele>499.14837647184</ele>
        <time>2016-03-13T11:55:35Z</time>
      </trkpt>
      <trkpt lat="43.72876" lon="3.52235">
        <ele>499.14837647184</ele>
        <time>2016-03-13T11:55:40Z</time>
      </trkpt>
      <trkpt lat="43.72877" lon="3.52235">
        <ele>499.14837647184</ele>
        <time>2016-03-13T11:55:45Z</time>
      </trkpt>
      <trkpt lat="43.72889" lon="3.52226">
        <ele>501.43008713829</ele>
        <time>2016-03-13T11:56:43Z</time>
      </trkpt>
      <trkpt lat="43.72892" lon="3.52225">
        <ele>501.43008713829</ele>
        <time>2016-03-13T11:56:48Z</time>
      </trkpt>
      <trkpt lat="43.72908" lon="3.52233">
        <ele>503.2391867281</ele>
        <time>2016-03-13T11:57:03Z</time>
      </trkpt>
      <trkpt lat="43.72912" lon="3.52234">
        <ele>503.2391867281</ele>
        <time>2016-03-13T11:57:27Z</time>
      </trkpt>
      <trkpt lat="43.72911" lon="3.52239">
        <ele>503.2391867281</ele>
        <time>2016-03-13T11:58:25Z</time>
      </trkpt>
      <trkpt lat="43.72906" lon="3.52242">
        <ele>504.44081658645</ele>
        <time>2016-03-13T11:58:30Z</time>
      </trkpt>
      <trkpt lat="43.72899" lon="3.52249">
        <ele>505.28668948732</ele>
        <time>2016-03-13T11:58:44Z</time>
      </trkpt>
      <trkpt lat="43.72895" lon="3.52256">
        <ele>505.28668948732</ele>
        <time>2016-03-13T11:58:45Z</time>
      </trkpt>
      <trkpt lat="43.72894" lon="3.52262">
        <ele>505.88140950988</ele>
        <time>2016-03-13T11:59:00Z</time>
      </trkpt>
      <trkpt lat="43.72891" lon="3.52284">
        <ele>506.13533095786</ele>
        <time>2016-03-13T11:59:33Z</time>
      </trkpt>
      <trkpt lat="43.72885" lon="3.52305">
        <ele>506.24029115998</ele>
        <time>2016-03-13T12:00:31Z</time>
      </trkpt>
      <trkpt lat="43.7288" lon="3.52312">
        <ele>506.24029115998</ele>
        <time>2016-03-13T12:00:43Z</time>
      </trkpt>
      <trkpt lat="43.72876" lon="3.52323">
        <ele>506.15830185319</ele>
        <time>2016-03-13T12:00:44Z</time>
      </trkpt>
      <trkpt lat="43.72887" lon="3.52376">
        <ele>505.81148327699</ele>
        <time>2016-03-13T12:01:28Z</time>
      </trkpt>
      <trkpt lat="43.729" lon="3.52378">
        <ele>505.24371790173</ele>
        <time>2016-03-13T12:01:28Z</time>
      </trkpt>
      <trkpt lat="43.72945" lon="3.52386">
        <ele>505.85096426852</ele>
        <time>2016-03-13T12:02:07Z</time>
      </trkpt>
      <trkpt lat="43.7295" lon="3.52386">
        <ele>505.85096426852</ele>
        <time>2016-03-13T12:02:10Z</time>
      </trkpt>
      <trkpt lat="43.72933" lon="3.52471">
        <ele>507.28029177991</ele>
        <time>2016-03-13T12:03:45Z</time>
      </trkpt>
      <trkpt lat="43.72932" lon="3.52479">
        <ele>507.28029177991</ele>
        <time>2016-03-13T12:03:45Z</time>
      </trkpt>
      <trkpt lat="43.72933" lon="3.5256">
        <ele>509.00058254978</ele>
        <time>2016-03-13T12:04:47Z</time>
      </trkpt>
      <trkpt lat="43.72937" lon="3.52572">
        <ele>510.53326721349</ele>
        <time>2016-03-13T12:04:47Z</time>
      </trkpt>
      <trkpt lat="43.72943" lon="3.52581">
        <ele>511.88212878105</ele>
        <time>2016-03-13T12:04:56Z</time>
      </trkpt>
      <trkpt lat="43.73067" lon="3.52588">
        <ele>513.91576599771</ele>
        <time>2016-03-13T12:06:50Z</time>
      </trkpt>
      <trkpt lat="43.73094" lon="3.52614">
        <ele>515.77964137264</ele>
        <time>2016-03-13T12:07:19Z</time>
      </trkpt>
      <trkpt lat="43.731" lon="3.52624">
        <ele>517.50380972109</ele>
        <time>2016-03-13T12:07:27Z</time>
      </trkpt>
      <trkpt lat="43.73138" lon="3.52655">
        <ele>519.56314926375</ele>
        <time>2016-03-13T12:08:13Z</time>
      </trkpt>
      <trkpt lat="43.73154" lon="3.52661">
        <ele>521.37340467439</ele>
        <time>2016-03-13T12:08:38Z</time>
      </trkpt>
      <trkpt lat="43.73211" lon="3.52701">
        <ele>523.56114116741</ele>
        <time>2016-03-13T12:09:19Z</time>
      </trkpt>
      <trkpt lat="43.73234" lon="3.52716">
        <ele>525.68252901769</ele>
        <time>2016-03-13T12:09:43Z</time>
      </trkpt>
      <trkpt lat="43.73235" lon="3.52717">
        <ele>525.68252901769</ele>
        <time>2016-03-13T12:09:45Z</time>
      </trkpt>
      <trkpt lat="43.7324" lon="3.52719">
        <ele>525.68252901769</ele>
        <time>2016-03-13T12:09:50Z</time>
      </trkpt>
      <trkpt lat="43.73243" lon="3.5272">
        <ele>527.87404925048</ele>
        <time>2016-03-13T12:09:55Z</time>
      </trkpt>
      <trkpt lat="43.73244" lon="3.5272">
        <ele>527.87404925048</ele>
        <time>2016-03-13T12:10:00Z</time>
      </trkpt>
      <trkpt lat="43.73249" lon="3.52721">
        <ele>527.87404925048</ele>
        <time>2016-03-13T12:10:10Z</time>
      </trkpt>
      <trkpt lat="43.7329" lon="3.52725">
        <ele>529.87274932192</ele>
        <time>2016-03-13T12:10:49Z</time>
      </trkpt>
      <trkpt lat="43.73296" lon="3.52726">
        <ele>529.87274932192</ele>
        <time>2016-03-13T12:10:49Z</time>
      </trkpt>
      <trkpt lat="43.73347" lon="3.52747">
        <ele>531.63718859761</ele>
        <time>2016-03-13T12:11:30Z</time>
      </trkpt>
      <trkpt lat="43.734" lon="3.52766">
        <ele>532.35130869494</ele>
        <time>2016-03-13T12:12:15Z</time>
      </trkpt>
      <trkpt lat="43.73402" lon="3.52766">
        <ele>532.35130869494</ele>
        <time>2016-03-13T12:12:15Z</time>
      </trkpt>
      <trkpt lat="43.73505" lon="3.52808">
        <ele>533.56766446319</ele>
        <time>2016-03-13T12:13:51Z</time>
      </trkpt>
      <trkpt lat="43.73508" lon="3.52813">
        <ele>533.56766446319</ele>
        <time>2016-03-13T12:13:51Z</time>
      </trkpt>
      <trkpt lat="43.7351" lon="3.52825">
        <ele>534.33094996112</ele>
        <time>2016-03-13T12:14:05Z</time>
      </trkpt>
      <trkpt lat="43.73514" lon="3.52846">
        <ele>534.70834545951</ele>
        <time>2016-03-13T12:14:25Z</time>
      </trkpt>
      <trkpt lat="43.73514" lon="3.52876">
        <ele>534.48923885035</ele>
        <time>2016-03-13T12:14:46Z</time>
      </trkpt>
      <trkpt lat="43.73515" lon="3.52879">
        <ele>534.48923885035</ele>
        <time>2016-03-13T12:14:46Z</time>
      </trkpt>
      <trkpt lat="43.73515" lon="3.52879">
        <ele>534.48923885035</ele>
        <time>2016-03-13T12:15:38Z</time>
      </trkpt>
      <trkpt lat="43.73519" lon="3.5289">
        <ele>534.14295963025</ele>
        <time>2016-03-13T12:16:50Z</time>
      </trkpt>
      <trkpt lat="43.73518" lon="3.52883">
        <ele>534.14295963025</ele>
        <time>2016-03-13T12:17:15Z</time>
      </trkpt>
      <trkpt lat="43.73514" lon="3.52814">
        <ele>534.20545630819</ele>
        <time>2016-03-13T12:18:00Z</time>
      </trkpt>
      <trkpt lat="43.73512" lon="3.52813">
        <ele>534.20545630819</ele>
        <time>2016-03-13T12:18:45Z</time>
      </trkpt>
      <trkpt lat="43.73478" lon="3.52792">
        <ele>534.5667253941</ele>
        <time>2016-03-13T12:19:21Z</time>
      </trkpt>
      <trkpt lat="43.73381" lon="3.52759">
        <ele>534.73473552167</ele>
        <time>2016-03-13T12:20:32Z</time>
      </trkpt>
      <trkpt lat="43.7338" lon="3.52758">
        <ele>534.73473552167</ele>
        <time>2016-03-13T12:20:32Z</time>
      </trkpt>
      <trkpt lat="43.73377" lon="3.52758">
        <ele>534.73473552167</ele>
        <time>2016-03-13T12:20:35Z</time>
      </trkpt>
      <trkpt lat="43.7337" lon="3.52756">
        <ele>534.75837769293</ele>
        <time>2016-03-13T12:20:40Z</time>
      </trkpt>
      <trkpt lat="43.73361" lon="3.52752">
        <ele>534.69759537531</ele>
        <time>2016-03-13T12:20:56Z</time>
      </trkpt>
      <trkpt lat="43.73349" lon="3.52747">
        <ele>534.49269611653</ele>
        <time>2016-03-13T12:20:56Z</time>
      </trkpt>
      <trkpt lat="43.73269" lon="3.52682">
        <ele>535.0829849724</ele>
        <time>2016-03-13T12:22:37Z</time>
      </trkpt>
      <trkpt lat="43.7327" lon="3.52676">
        <ele>535.0829849724</ele>
        <time>2016-03-13T12:22:37Z</time>
      </trkpt>
      <trkpt lat="43.73272" lon="3.52672">
        <ele>535.0829849724</ele>
        <time>2016-03-13T12:22:40Z</time>
      </trkpt>
      <trkpt lat="43.73276" lon="3.52659">
        <ele>535.86638201799</ele>
        <time>2016-03-13T12:22:53Z</time>
      </trkpt>
      <trkpt lat="43.73278" lon="3.52648">
        <ele>535.86638201799</ele>
        <time>2016-03-13T12:22:56Z</time>
      </trkpt>
      <trkpt lat="43.73287" lon="3.52616">
        <ele>536.91841612897</ele>
        <time>2016-03-13T12:23:14Z</time>
      </trkpt>
      <trkpt lat="43.73288" lon="3.52614">
        <ele>536.91841612897</ele>
        <time>2016-03-13T12:23:15Z</time>
      </trkpt>
      <trkpt lat="43.73308" lon="3.52551">
        <ele>538.3513690336</ele>
        <time>2016-03-13T12:24:00Z</time>
      </trkpt>
      <trkpt lat="43.73311" lon="3.52545">
        <ele>538.3513690336</ele>
        <time>2016-03-13T12:24:04Z</time>
      </trkpt>
      <trkpt lat="43.7333" lon="3.52504">
        <ele>539.97980589713</ele>
        <time>2016-03-13T12:24:31Z</time>
      </trkpt>
      <trkpt lat="43.73374" lon="3.52442">
        <ele>541.58796946574</ele>
        <time>2016-03-13T12:25:25Z</time>
      </trkpt>
      <trkpt lat="43.73388" lon="3.52421">
        <ele>543.09114751438</ele>
        <time>2016-03-13T12:25:33Z</time>
      </trkpt>
      <trkpt lat="43.73389" lon="3.52418">
        <ele>543.09114751438</ele>
        <time>2016-03-13T12:25:35Z</time>
      </trkpt>
      <trkpt lat="43.73392" lon="3.52412">
        <ele>543.09114751438</ele>
        <time>2016-03-13T12:25:40Z</time>
      </trkpt>
      <trkpt lat="43.73392" lon="3.52411">
        <ele>543.09114751438</ele>
        <time>2016-03-13T12:25:45Z</time>
      </trkpt>
      <trkpt lat="43.73397" lon="3.52405">
        <ele>544.64158386107</ele>
        <time>2016-03-13T12:25:50Z</time>
      </trkpt>
      <trkpt lat="43.73401" lon="3.524">
        <ele>544.64158386107</ele>
        <time>2016-03-13T12:25:55Z</time>
      </trkpt>
      <trkpt lat="43.73406" lon="3.52396">
        <ele>546.0342015787</ele>
        <time>2016-03-13T12:26:00Z</time>
      </trkpt>
      <trkpt lat="43.73437" lon="3.52358">
        <ele>546.67579209164</ele>
        <time>2016-03-13T12:26:35Z</time>
      </trkpt>
      <trkpt lat="43.7344" lon="3.5235">
        <ele>546.67579209164</ele>
        <time>2016-03-13T12:26:40Z</time>
      </trkpt>
      <trkpt lat="43.73468" lon="3.52302">
        <ele>546.37899407407</ele>
        <time>2016-03-13T12:27:16Z</time>
      </trkpt>
      <trkpt lat="43.73469" lon="3.523">
        <ele>546.37899407407</ele>
        <time>2016-03-13T12:27:17Z</time>
      </trkpt>
      <trkpt lat="43.73474" lon="3.52292">
        <ele>545.85180839497</ele>
        <time>2016-03-13T12:27:24Z</time>
      </trkpt>
      <trkpt lat="43.73542" lon="3.52187">
        <ele>543.96375521307</ele>
        <time>2016-03-13T12:28:45Z</time>
      </trkpt>
      <trkpt lat="43.73551" lon="3.52165">
        <ele>541.74629951297</ele>
        <time>2016-03-13T12:29:00Z</time>
      </trkpt>
      <trkpt lat="43.73536" lon="3.5215">
        <ele>539.59387170401</ele>
        <time>2016-03-13T12:29:32Z</time>
      </trkpt>
      <trkpt lat="43.73516" lon="3.52105">
        <ele>537.32395581459</ele>
        <time>2016-03-13T12:30:06Z</time>
      </trkpt>
      <trkpt lat="43.73514" lon="3.52096">
        <ele>537.32395581459</ele>
        <time>2016-03-13T12:30:06Z</time>
      </trkpt>
      <trkpt lat="43.73515" lon="3.52081">
        <ele>534.92611594577</ele>
        <time>2016-03-13T12:30:19Z</time>
      </trkpt>
      <trkpt lat="43.73513" lon="3.52069">
        <ele>534.92611594577</ele>
        <time>2016-03-13T12:30:22Z</time>
      </trkpt>
      <trkpt lat="43.73519" lon="3.5205">
        <ele>532.27555577987</ele>
        <time>2016-03-13T12:30:35Z</time>
      </trkpt>
      <trkpt lat="43.73521" lon="3.52045">
        <ele>532.27555577987</ele>
        <time>2016-03-13T12:30:40Z</time>
      </trkpt>
      <trkpt lat="43.73526" lon="3.52043">
        <ele>532.27555577987</ele>
        <time>2016-03-13T12:31:10Z</time>
      </trkpt>
      <trkpt lat="43.73538" lon="3.52036">
        <ele>529.53095540484</ele>
        <time>2016-03-13T12:31:12Z</time>
      </trkpt>
      <trkpt lat="43.73542" lon="3.52027">
        <ele>529.53095540484</ele>
        <time>2016-03-13T12:31:27Z</time>
      </trkpt>
      <trkpt lat="43.73541" lon="3.52013">
        <ele>526.85378645535</ele>
        <time>2016-03-13T12:31:27Z</time>
      </trkpt>
      <trkpt lat="43.73545" lon="3.51982">
        <ele>524.19147367882</ele>
        <time>2016-03-13T12:32:00Z</time>
      </trkpt>
      <trkpt lat="43.7355" lon="3.51962">
        <ele>521.53824373285</ele>
        <time>2016-03-13T12:32:00Z</time>
      </trkpt>
      <trkpt lat="43.73565" lon="3.51905">
        <ele>518.52818072995</ele>
        <time>2016-03-13T12:32:43Z</time>
      </trkpt>
      <trkpt lat="43.73631" lon="3.51765">
        <ele>513.51156151001</ele>
        <time>2016-03-13T12:34:34Z</time>
      </trkpt>
      <trkpt lat="43.73632" lon="3.51765">
        <ele>513.51156151001</ele>
        <time>2016-03-13T12:34:35Z</time>
      </trkpt>
      <trkpt lat="43.73651" lon="3.51756">
        <ele>508.20769163935</ele>
        <time>2016-03-13T12:35:02Z</time>
      </trkpt>
      <trkpt lat="43.73653" lon="3.51756">
        <ele>508.20769163935</ele>
        <time>2016-03-13T12:35:02Z</time>
      </trkpt>
      <trkpt lat="43.73705" lon="3.51724">
        <ele>500.59287711693</ele>
        <time>2016-03-13T12:36:16Z</time>
      </trkpt>
      <trkpt lat="43.73708" lon="3.51721">
        <ele>500.59287711693</ele>
        <time>2016-03-13T12:36:16Z</time>
      </trkpt>
      <trkpt lat="43.73756" lon="3.51628">
        <ele>490.26815458157</ele>
        <time>2016-03-13T12:37:57Z</time>
      </trkpt>
      <trkpt lat="43.73766" lon="3.51615">
        <ele>479.91182939845</ele>
        <time>2016-03-13T12:38:15Z</time>
      </trkpt>
      <trkpt lat="43.73774" lon="3.5162">
        <ele>479.91182939845</ele>
        <time>2016-03-13T12:38:32Z</time>
      </trkpt>
      <trkpt lat="43.73779" lon="3.5162">
        <ele>469.49757915075</ele>
        <time>2016-03-13T12:38:52Z</time>
      </trkpt>
      <trkpt lat="43.73783" lon="3.5162">
        <ele>469.49757915075</ele>
        <time>2016-03-13T12:38:55Z</time>
      </trkpt>
      <trkpt lat="43.73786" lon="3.51623">
        <ele>469.49757915075</ele>
        <time>2016-03-13T12:39:00Z</time>
      </trkpt>
      <trkpt lat="43.73769" lon="3.51725">
        <ele>459.31773719272</ele>
        <time>2016-03-13T12:40:27Z</time>
      </trkpt>
      <trkpt lat="43.73766" lon="3.51743">
        <ele>449.9734280521</ele>
        <time>2016-03-13T12:40:37Z</time>
      </trkpt>
      <trkpt lat="43.73756" lon="3.51755">
        <ele>441.44225755925</ele>
        <time>2016-03-13T12:40:54Z</time>
      </trkpt>
      <trkpt lat="43.73756" lon="3.51758">
        <ele>441.44225755925</ele>
        <time>2016-03-13T12:40:57Z</time>
      </trkpt>
      <trkpt lat="43.7376" lon="3.51762">
        <ele>441.44225755925</ele>
        <time>2016-03-13T12:41:01Z</time>
      </trkpt>
      <trkpt lat="43.7378" lon="3.51745">
        <ele>433.38354853081</ele>
        <time>2016-03-13T12:41:27Z</time>
      </trkpt>
      <trkpt lat="43.73787" lon="3.51732">
        <ele>426.12820179964</ele>
        <time>2016-03-13T12:41:27Z</time>
      </trkpt>
      <trkpt lat="43.73792" lon="3.51728">
        <ele>426.12820179964</ele>
        <time>2016-03-13T12:42:08Z</time>
      </trkpt>
      <trkpt lat="43.7378" lon="3.51774">
        <ele>418.97114281066</ele>
        <time>2016-03-13T12:42:08Z</time>
      </trkpt>
      <trkpt lat="43.73756" lon="3.51812">
        <ele>411.97873115412</ele>
        <time>2016-03-13T12:42:48Z</time>
      </trkpt>
      <trkpt lat="43.73748" lon="3.5184">
        <ele>405.47074998492</ele>
        <time>2016-03-13T12:43:00Z</time>
      </trkpt>
      <trkpt lat="43.73748" lon="3.51903">
        <ele>398.61742869538</ele>
        <time>2016-03-13T12:43:45Z</time>
      </trkpt>
      <trkpt lat="43.73769" lon="3.51929">
        <ele>391.31320165768</ele>
        <time>2016-03-13T12:44:31Z</time>
      </trkpt>
      <trkpt lat="43.73827" lon="3.51892">
        <ele>382.58181906843</ele>
        <time>2016-03-13T12:45:37Z</time>
      </trkpt>
      <trkpt lat="43.7391" lon="3.51915">
        <ele>371.20507834054</ele>
        <time>2016-03-13T12:46:55Z</time>
      </trkpt>
      <trkpt lat="43.73941" lon="3.51945">
        <ele>359.51972284945</ele>
        <time>2016-03-13T12:47:35Z</time>
      </trkpt>
      <trkpt lat="43.73945" lon="3.51948">
        <ele>359.51972284945</ele>
        <time>2016-03-13T12:47:40Z</time>
      </trkpt>
      <trkpt lat="43.73949" lon="3.51948">
        <ele>359.51972284945</ele>
        <time>2016-03-13T12:48:00Z</time>
      </trkpt>
      <trkpt lat="43.73951" lon="3.5195">
        <ele>348.78315827027</ele>
        <time>2016-03-13T12:48:05Z</time>
      </trkpt>
      <trkpt lat="43.73955" lon="3.51953">
        <ele>348.78315827027</ele>
        <time>2016-03-13T12:48:10Z</time>
      </trkpt>
      <trkpt lat="43.73957" lon="3.5196">
        <ele>339.11949800997</ele>
        <time>2016-03-13T12:48:15Z</time>
      </trkpt>
      <trkpt lat="43.73958" lon="3.51959">
        <ele>339.11949800997</ele>
        <time>2016-03-13T12:48:20Z</time>
      </trkpt>
      <trkpt lat="43.73959" lon="3.51967">
        <ele>339.11949800997</ele>
        <time>2016-03-13T12:49:00Z</time>
      </trkpt>
      <trkpt lat="43.73956" lon="3.51988">
        <ele>330.64005699946</ele>
        <time>2016-03-13T12:49:16Z</time>
      </trkpt>
      <trkpt lat="43.73947" lon="3.5202">
        <ele>323.1125232707</ele>
        <time>2016-03-13T12:49:37Z</time>
      </trkpt>
      <trkpt lat="43.73944" lon="3.52064">
        <ele>316.36155173404</ele>
        <time>2016-03-13T12:50:04Z</time>
      </trkpt>
      <trkpt lat="43.73939" lon="3.52095">
        <ele>310.38037983712</ele>
        <time>2016-03-13T12:50:22Z</time>
      </trkpt>
      <trkpt lat="43.73937" lon="3.52104">
        <ele>310.38037983712</ele>
        <time>2016-03-13T12:50:27Z</time>
      </trkpt>
      <trkpt lat="43.73939" lon="3.52122">
        <ele>304.68439966269</ele>
        <time>2016-03-13T12:50:45Z</time>
      </trkpt>
      <trkpt lat="43.73939" lon="3.52134">
        <ele>304.68439966269</ele>
        <time>2016-03-13T12:50:46Z</time>
      </trkpt>
      <trkpt lat="43.73945" lon="3.52149">
        <ele>299.39966374293</ele>
        <time>2016-03-13T12:50:54Z</time>
      </trkpt>
      <trkpt lat="43.73945" lon="3.5215">
        <ele>299.39966374293</ele>
        <time>2016-03-13T12:50:55Z</time>
      </trkpt>
      <trkpt lat="43.73951" lon="3.52171">
        <ele>294.41068518833</ele>
        <time>2016-03-13T12:51:17Z</time>
      </trkpt>
      <trkpt lat="43.73952" lon="3.52184">
        <ele>289.99822167772</ele>
        <time>2016-03-13T12:51:20Z</time>
      </trkpt>
      <trkpt lat="43.73952" lon="3.52194">
        <ele>289.99822167772</ele>
        <time>2016-03-13T12:51:36Z</time>
      </trkpt>
      <trkpt lat="43.73942" lon="3.52218">
        <ele>285.69976319763</ele>
        <time>2016-03-13T12:51:51Z</time>
      </trkpt>
      <trkpt lat="43.73933" lon="3.52243">
        <ele>281.89305006621</ele>
        <time>2016-03-13T12:52:00Z</time>
      </trkpt>
      <trkpt lat="43.73925" lon="3.52306">
        <ele>277.75900666883</ele>
        <time>2016-03-13T12:52:43Z</time>
      </trkpt>
      <trkpt lat="43.73924" lon="3.52313">
        <ele>277.75900666883</ele>
        <time>2016-03-13T12:52:43Z</time>
      </trkpt>
      <trkpt lat="43.73932" lon="3.52423">
        <ele>272.61135252536</ele>
        <time>2016-03-13T12:54:03Z</time>
      </trkpt>
      <trkpt lat="43.73935" lon="3.52431">
        <ele>272.61135252536</ele>
        <time>2016-03-13T12:54:45Z</time>
      </trkpt>
      <trkpt lat="43.73934" lon="3.52438">
        <ele>268.85750210286</ele>
        <time>2016-03-13T12:54:50Z</time>
      </trkpt>
      <trkpt lat="43.73933" lon="3.52458">
        <ele>265.59662800888</ele>
        <time>2016-03-13T12:55:05Z</time>
      </trkpt>
      <trkpt lat="43.73933" lon="3.52461">
        <ele>265.59662800888</ele>
        <time>2016-03-13T12:55:10Z</time>
      </trkpt>
      <trkpt lat="43.73933" lon="3.52468">
        <ele>265.59662800888</ele>
        <time>2016-03-13T12:55:15Z</time>
      </trkpt>
      <trkpt lat="43.7393" lon="3.52481">
        <ele>262.9868279422</ele>
        <time>2016-03-13T12:55:25Z</time>
      </trkpt>
      <trkpt lat="43.73936" lon="3.52532">
        <ele>260.94198767028</ele>
        <time>2016-03-13T12:56:06Z</time>
      </trkpt>
      <trkpt lat="43.73914" lon="3.52558">
        <ele>259.6543950797</ele>
        <time>2016-03-13T12:56:40Z</time>
      </trkpt>
      <trkpt lat="43.73936" lon="3.5261">
        <ele>258.96852843617</ele>
        <time>2016-03-13T12:57:15Z</time>
      </trkpt>
      <trkpt lat="43.73939" lon="3.52615">
        <ele>258.96852843617</ele>
        <time>2016-03-13T12:57:25Z</time>
      </trkpt>
      <trkpt lat="43.73948" lon="3.52611">
        <ele>259.11323595606</ele>
        <time>2016-03-13T12:58:20Z</time>
      </trkpt>
      <trkpt lat="43.73948" lon="3.52611">
        <ele>259.11323595606</ele>
        <time>2016-03-13T12:58:25Z</time>
      </trkpt>
      <trkpt lat="43.73949" lon="3.52618">
        <ele>259.11323595606</ele>
        <time>2016-03-13T12:59:35Z</time>
      </trkpt>
      <trkpt lat="43.7395" lon="3.52624">
        <ele>259.83706403615</ele>
        <time>2016-03-13T12:59:40Z</time>
      </trkpt>
      <trkpt lat="43.7395" lon="3.5263">
        <ele>259.83706403615</ele>
        <time>2016-03-13T12:59:45Z</time>
      </trkpt>
      <trkpt lat="43.73956" lon="3.52687">
        <ele>260.96309785573</ele>
        <time>2016-03-13T13:00:25Z</time>
      </trkpt>
      <trkpt lat="43.7396" lon="3.52709">
        <ele>262.47050177432</ele>
        <time>2016-03-13T13:00:41Z</time>
      </trkpt>
      <trkpt lat="43.73966" lon="3.52762">
        <ele>264.56963227632</ele>
        <time>2016-03-13T13:01:08Z</time>
      </trkpt>
      <trkpt lat="43.7396" lon="3.52796">
        <ele>267.25218403895</ele>
        <time>2016-03-13T13:01:39Z</time>
      </trkpt>
      <trkpt lat="43.73946" lon="3.52878">
        <ele>270.84054049851</ele>
        <time>2016-03-13T13:02:27Z</time>
      </trkpt>
      <trkpt lat="43.73946" lon="3.52881">
        <ele>270.84054049851</ele>
        <time>2016-03-13T13:02:27Z</time>
      </trkpt>
      <trkpt lat="43.73937" lon="3.52942">
        <ele>275.0547304159</ele>
        <time>2016-03-13T13:03:11Z</time>
      </trkpt>
      <trkpt lat="43.7394" lon="3.5297">
        <ele>279.50426010917</ele>
        <time>2016-03-13T13:03:25Z</time>
      </trkpt>
      <trkpt lat="43.7394" lon="3.52972">
        <ele>279.50426010917</ele>
        <time>2016-03-13T13:03:26Z</time>
      </trkpt>
      <trkpt lat="43.73942" lon="3.52979">
        <ele>279.50426010917</ele>
        <time>2016-03-13T13:03:30Z</time>
      </trkpt>
      <trkpt lat="43.73942" lon="3.52987">
        <ele>284.02883621154</ele>
        <time>2016-03-13T13:03:35Z</time>
      </trkpt>
      <trkpt lat="43.73934" lon="3.53022">
        <ele>288.71077794724</ele>
        <time>2016-03-13T13:04:08Z</time>
      </trkpt>
      <trkpt lat="43.73924" lon="3.5303">
        <ele>293.32379973045</ele>
        <time>2016-03-13T13:04:08Z</time>
      </trkpt>
      <trkpt lat="43.73882" lon="3.53036">
        <ele>298.40837081376</ele>
        <time>2016-03-13T13:05:00Z</time>
      </trkpt>
      <trkpt lat="43.73845" lon="3.53042">
        <ele>303.78721300417</ele>
        <time>2016-03-13T13:05:32Z</time>
      </trkpt>
      <trkpt lat="43.73837" lon="3.5305">
        <ele>308.95001499596</ele>
        <time>2016-03-13T13:07:15Z</time>
      </trkpt>
      <trkpt lat="43.73838" lon="3.53032">
        <ele>314.33312841459</ele>
        <time>2016-03-13T13:13:00Z</time>
      </trkpt>
      <trkpt lat="43.73834" lon="3.53027">
        <ele>314.33312841459</ele>
        <time>2016-03-13T13:13:19Z</time>
      </trkpt>
      <trkpt lat="43.73825" lon="3.53018">
        <ele>319.40420837051</ele>
        <time>2016-03-13T13:13:19Z</time>
      </trkpt>
      <trkpt lat="43.73829" lon="3.52988">
        <ele>324.32011388015</ele>
        <time>2016-03-13T13:14:02Z</time>
      </trkpt>
      <trkpt lat="43.73818" lon="3.52962">
        <ele>328.86708006962</ele>
        <time>2016-03-13T13:14:17Z</time>
      </trkpt>
      <trkpt lat="43.73778" lon="3.52986">
        <ele>332.74795670891</ele>
        <time>2016-03-13T13:15:31Z</time>
      </trkpt>
      <trkpt lat="43.73778" lon="3.52986">
        <ele>332.74795670891</ele>
        <time>2016-03-13T13:15:31Z</time>
      </trkpt>
      <trkpt lat="43.73783" lon="3.52988">
        <ele>332.74795670891</ele>
        <time>2016-03-13T13:15:40Z</time>
      </trkpt>
      <trkpt lat="43.73799" lon="3.5298">
        <ele>335.8918067076</ele>
        <time>2016-03-13T13:15:55Z</time>
      </trkpt>
      <trkpt lat="43.73812" lon="3.52984">
        <ele>338.76894279913</ele>
        <time>2016-03-13T13:16:19Z</time>
      </trkpt>
      <trkpt lat="43.73808" lon="3.53011">
        <ele>341.31224080278</ele>
        <time>2016-03-13T13:16:59Z</time>
      </trkpt>
      <trkpt lat="43.73806" lon="3.53011">
        <ele>341.31224080278</ele>
        <time>2016-03-13T13:16:59Z</time>
      </trkpt>
      <trkpt lat="43.73805" lon="3.53011">
        <ele>341.31224080278</ele>
        <time>2016-03-13T13:17:00Z</time>
      </trkpt>
      <trkpt lat="43.73797" lon="3.5301">
        <ele>343.5908842344</ele>
        <time>2016-03-13T13:17:24Z</time>
      </trkpt>
      <trkpt lat="43.73672" lon="3.53149">
        <ele>340.54007372063</ele>
        <time>2016-03-13T13:19:56Z</time>
      </trkpt>
      <trkpt lat="43.7366" lon="3.53168">
        <ele>337.22461213994</ele>
        <time>2016-03-13T13:20:14Z</time>
      </trkpt>
      <trkpt lat="43.73656" lon="3.53181">
        <ele>333.88558471831</ele>
        <time>2016-03-13T13:20:15Z</time>
      </trkpt>
      <trkpt lat="43.73653" lon="3.53229">
        <ele>330.14174093785</ele>
        <time>2016-03-13T13:22:33Z</time>
      </trkpt>
      <trkpt lat="43.73616" lon="3.53438">
        <ele>325.58383833025</ele>
        <time>2016-03-13T13:22:33Z</time>
      </trkpt>
      <trkpt lat="43.73615" lon="3.53444">
        <ele>325.58383833025</ele>
        <time>2016-03-13T13:22:41Z</time>
      </trkpt>
      <trkpt lat="43.73613" lon="3.53469">
        <ele>318.98516827835</ele>
        <time>2016-03-13T13:22:51Z</time>
      </trkpt>
      <trkpt lat="43.7361" lon="3.53475">
        <ele>318.98516827835</ele>
        <time>2016-03-13T13:22:55Z</time>
      </trkpt>
      <trkpt lat="43.73608" lon="3.53487">
        <ele>312.47214777961</ele>
        <time>2016-03-13T13:23:00Z</time>
      </trkpt>
      <trkpt lat="43.73607" lon="3.53491">
        <ele>312.47214777961</ele>
        <time>2016-03-13T13:23:05Z</time>
      </trkpt>
      <trkpt lat="43.73606" lon="3.53501">
        <ele>306.02631855118</ele>
        <time>2016-03-13T13:23:10Z</time>
      </trkpt>
      <trkpt lat="43.73607" lon="3.53507">
        <ele>306.02631855118</ele>
        <time>2016-03-13T13:23:15Z</time>
      </trkpt>
      <trkpt lat="43.73599" lon="3.53557">
        <ele>299.2271114093</ele>
        <time>2016-03-13T13:23:45Z</time>
      </trkpt>
      <trkpt lat="43.73615" lon="3.53627">
        <ele>291.58512718155</ele>
        <time>2016-03-13T13:25:07Z</time>
      </trkpt>
      <trkpt lat="43.73615" lon="3.53632">
        <ele>291.58512718155</ele>
        <time>2016-03-13T13:25:07Z</time>
      </trkpt>
      <trkpt lat="43.73615" lon="3.53644">
        <ele>284.49399969573</ele>
        <time>2016-03-13T13:25:15Z</time>
      </trkpt>
      <trkpt lat="43.73616" lon="3.53652">
        <ele>284.49399969573</ele>
        <time>2016-03-13T13:25:24Z</time>
      </trkpt>
      <trkpt lat="43.73617" lon="3.53652">
        <ele>284.49399969573</ele>
        <time>2016-03-13T13:25:25Z</time>
      </trkpt>
      <trkpt lat="43.73608" lon="3.53656">
        <ele>277.55737266639</ele>
        <time>2016-03-13T13:25:57Z</time>
      </trkpt>
      <trkpt lat="43.73596" lon="3.53661">
        <ele>270.86870055099</ele>
        <time>2016-03-13T13:26:54Z</time>
      </trkpt>
      <trkpt lat="43.73608" lon="3.53659">
        <ele>264.88848581802</ele>
        <time>2016-03-13T13:26:54Z</time>
      </trkpt>
      <trkpt lat="43.73615" lon="3.53665">
        <ele>264.88848581802</ele>
        <time>2016-03-13T13:27:16Z</time>
      </trkpt>
      <trkpt lat="43.73611" lon="3.5367">
        <ele>259.42161192599</ele>
        <time>2016-03-13T13:27:16Z</time>
      </trkpt>
      <trkpt lat="43.73612" lon="3.53672">
        <ele>259.42161192599</ele>
        <time>2016-03-13T13:27:18Z</time>
      </trkpt>
      <trkpt lat="43.73626" lon="3.53713">
        <ele>254.53068175611</ele>
        <time>2016-03-13T13:27:49Z</time>
      </trkpt>
      <trkpt lat="43.73623" lon="3.53726">
        <ele>250.02690237023</ele>
        <time>2016-03-13T13:27:50Z</time>
      </trkpt>
      <trkpt lat="43.73639" lon="3.53772">
        <ele>245.61875904305</ele>
        <time>2016-03-13T13:28:14Z</time>
      </trkpt>
      <trkpt lat="43.73638" lon="3.53775">
        <ele>245.61875904305</ele>
        <time>2016-03-13T13:28:15Z</time>
      </trkpt>
      <trkpt lat="43.73645" lon="3.53801">
        <ele>241.4391616786</ele>
        <time>2016-03-13T13:28:29Z</time>
      </trkpt>
      <trkpt lat="43.73645" lon="3.53802">
        <ele>241.4391616786</ele>
        <time>2016-03-13T13:28:30Z</time>
      </trkpt>
      <trkpt lat="43.73645" lon="3.53825">
        <ele>237.37979168633</ele>
        <time>2016-03-13T13:28:46Z</time>
      </trkpt>
      <trkpt lat="43.73623" lon="3.5386">
        <ele>233.38292762129</ele>
        <time>2016-03-13T13:29:05Z</time>
      </trkpt>
      <trkpt lat="43.73593" lon="3.53929">
        <ele>229.40906058223</ele>
        <time>2016-03-13T13:29:53Z</time>
      </trkpt>
      <trkpt lat="43.7359" lon="3.53934">
        <ele>229.40906058223</ele>
        <time>2016-03-13T13:30:00Z</time>
      </trkpt>
      <trkpt lat="43.73564" lon="3.53965">
        <ele>225.66624004953</ele>
        <time>2016-03-13T13:30:27Z</time>
      </trkpt>
      <trkpt lat="43.73555" lon="3.5397">
        <ele>222.15896851699</ele>
        <time>2016-03-13T13:30:27Z</time>
      </trkpt>
      <trkpt lat="43.73533" lon="3.54062">
        <ele>217.7952386809</ele>
        <time>2016-03-13T13:31:50Z</time>
      </trkpt>
      <trkpt lat="43.73539" lon="3.5409">
        <ele>213.53971240563</ele>
        <time>2016-03-13T13:32:16Z</time>
      </trkpt>
      <trkpt lat="43.73617" lon="3.54199">
        <ele>205.77492308593</ele>
        <time>2016-03-13T13:34:32Z</time>
      </trkpt>
      <trkpt lat="43.73619" lon="3.54178">
        <ele>198.34983977122</ele>
        <time>2016-03-13T13:34:43Z</time>
      </trkpt>
      <trkpt lat="43.73617" lon="3.54163">
        <ele>191.1690021529</ele>
        <time>2016-03-13T13:35:05Z</time>
      </trkpt>
      <trkpt lat="43.73638" lon="3.54201">
        <ele>183.95560258245</ele>
        <time>2016-03-13T13:35:36Z</time>
      </trkpt>
      <trkpt lat="43.73642" lon="3.54216">
        <ele>177.25993077959</ele>
        <time>2016-03-13T13:35:36Z</time>
      </trkpt>
      <trkpt lat="43.7364" lon="3.54245">
        <ele>170.81183328431</ele>
        <time>2016-03-13T13:35:51Z</time>
      </trkpt>
      <trkpt lat="43.73617" lon="3.54372">
        <ele>163.10615963726</ele>
        <time>2016-03-13T13:37:03Z</time>
      </trkpt>
      <trkpt lat="43.73621" lon="3.5438">
        <ele>163.10615963726</ele>
        <time>2016-03-13T13:37:03Z</time>
      </trkpt>
      <trkpt lat="43.73623" lon="3.54385">
        <ele>156.12366456096</ele>
        <time>2016-03-13T13:37:05Z</time>
      </trkpt>
      <trkpt lat="43.7361" lon="3.54433">
        <ele>149.47785691529</ele>
        <time>2016-03-13T13:37:27Z</time>
      </trkpt>
      <trkpt lat="43.73609" lon="3.54437">
        <ele>149.47785691529</ele>
        <time>2016-03-13T13:37:28Z</time>
      </trkpt>
      <trkpt lat="43.73642" lon="3.54507">
        <ele>141.81491655882</ele>
        <time>2016-03-13T13:39:20Z</time>
      </trkpt>
      <trkpt lat="43.73651" lon="3.54539">
        <ele>134.63543500531</ele>
        <time>2016-03-13T13:39:35Z</time>
      </trkpt>
      <trkpt lat="43.73648" lon="3.54569">
        <ele>127.8724721213</ele>
        <time>2016-03-13T13:39:50Z</time>
      </trkpt>
      <trkpt lat="43.73666" lon="3.54743">
        <ele>117.77316232582</ele>
        <time>2016-03-13T13:41:48Z</time>
      </trkpt>
      <trkpt lat="43.73649" lon="3.54773">
        <ele>108.30538100301</ele>
        <time>2016-03-13T13:42:02Z</time>
      </trkpt>
      <trkpt lat="43.73646" lon="3.54774">
        <ele>108.30538100301</ele>
        <time>2016-03-13T13:42:05Z</time>
      </trkpt>
      <trkpt lat="43.73641" lon="3.54783">
        <ele>99.771104541666</ele>
        <time>2016-03-13T13:42:10Z</time>
      </trkpt>
      <trkpt lat="43.73636" lon="3.54785">
        <ele>99.771104541666</ele>
        <time>2016-03-13T13:42:15Z</time>
      </trkpt>
      <trkpt lat="43.73628" lon="3.54784">
        <ele>92.18764913177</ele>
        <time>2016-03-13T13:42:20Z</time>
      </trkpt>
      <trkpt lat="43.73621" lon="3.54787">
        <ele>92.18764913177</ele>
        <time>2016-03-13T13:42:25Z</time>
      </trkpt>
      <trkpt lat="43.73616" lon="3.54788">
        <ele>85.423815540141</ele>
        <time>2016-03-13T13:42:34Z</time>
      </trkpt>
      <trkpt lat="43.7361" lon="3.5479">
        <ele>85.423815540141</ele>
        <time>2016-03-13T13:42:38Z</time>
      </trkpt>
      <trkpt lat="43.73596" lon="3.54796">
        <ele>78.995001980634</ele>
        <time>2016-03-13T13:42:51Z</time>
      </trkpt>
      <trkpt lat="43.73585" lon="3.54792">
        <ele>73.128133967283</ele>
        <time>2016-03-13T13:42:51Z</time>
      </trkpt>
      <trkpt lat="43.73579" lon="3.54792">
        <ele>73.128133967283</ele>
        <time>2016-03-13T13:43:07Z</time>
      </trkpt>
      <trkpt lat="43.7358" lon="3.54789">
        <ele>73.128133967283</ele>
        <time>2016-03-13T13:43:24Z</time>
      </trkpt>
      <trkpt lat="43.73568" lon="3.5479">
        <ele>67.613529385879</ele>
        <time>2016-03-13T13:43:24Z</time>
      </trkpt>
      <trkpt lat="43.73567" lon="3.5479">
        <ele>67.613529385879</ele>
        <time>2016-03-13T13:43:25Z</time>
      </trkpt>
      <trkpt lat="43.73535" lon="3.54803">
        <ele>63.048113612759</ele>
        <time>2016-03-13T13:43:55Z</time>
      </trkpt>
      <trkpt lat="43.735" lon="3.54802">
        <ele>59.563983595045</ele>
        <time>2016-03-13T13:44:22Z</time>
      </trkpt>
      <trkpt lat="43.73493" lon="3.54804">
        <ele>59.563983595045</ele>
        <time>2016-03-13T13:44:23Z</time>
      </trkpt>
      <trkpt lat="43.73492" lon="3.54805">
        <ele>59.563983595045</ele>
        <time>2016-03-13T13:44:24Z</time>
      </trkpt>
      <trkpt lat="43.73491" lon="3.54807">
        <ele>56.775747283436</ele>
        <time>2016-03-13T13:44:25Z</time>
      </trkpt>
      <trkpt lat="43.73407" lon="3.54891">
        <ele>55.073423213111</ele>
        <time>2016-03-13T13:45:32Z</time>
      </trkpt>
      <trkpt lat="43.73406" lon="3.54891">
        <ele>55.073423213111</ele>
        <time>2016-03-13T13:45:32Z</time>
      </trkpt>
      <trkpt lat="43.73405" lon="3.54891">
        <ele>55.073423213111</ele>
        <time>2016-03-13T13:45:38Z</time>
      </trkpt>
      <trkpt lat="43.73405" lon="3.54891">
        <ele>55.073423213111</ele>
        <time>2016-03-13T13:45:40Z</time>
      </trkpt>
      <trkpt lat="43.73404" lon="3.54935">
        <ele>54.137727329844</ele>
        <time>2016-03-13T13:46:11Z</time>
      </trkpt>
      <trkpt lat="43.73403" lon="3.54952">
        <ele>53.728087909369</ele>
        <time>2016-03-13T13:46:12Z</time>
      </trkpt>
      <trkpt lat="43.73384" lon="3.55126">
        <ele>53.749644433677</ele>
        <time>2016-03-13T13:47:43Z</time>
      </trkpt>
      <trkpt lat="43.73384" lon="3.5513">
        <ele>53.749644433677</ele>
        <time>2016-03-13T13:47:45Z</time>
      </trkpt>
      <trkpt lat="43.73377" lon="3.55197">
        <ele>54.084340052288</ele>
        <time>2016-03-13T13:48:25Z</time>
      </trkpt>
      <trkpt lat="43.73373" lon="3.55212">
        <ele>54.708298480575</ele>
        <time>2016-03-13T13:48:25Z</time>
      </trkpt>
      <trkpt lat="43.73336" lon="3.55326">
        <ele>54.978878815151</ele>
        <time>2016-03-13T13:49:32Z</time>
      </trkpt>
      <trkpt lat="43.73307" lon="3.55362">
        <ele>54.93574755058</ele>
        <time>2016-03-13T13:50:06Z</time>
      </trkpt>
      <trkpt lat="43.73299" lon="3.55364">
        <ele>54.93574755058</ele>
        <time>2016-03-13T13:50:06Z</time>
      </trkpt>
      <trkpt lat="43.73222" lon="3.55356">
        <ele>53.79516483521</ele>
        <time>2016-03-13T13:51:05Z</time>
      </trkpt>
      <trkpt lat="43.73213" lon="3.55352">
        <ele>52.938163594624</ele>
        <time>2016-03-13T13:51:05Z</time>
      </trkpt>
      <trkpt lat="43.73189" lon="3.55335">
        <ele>52.20254868831</ele>
        <time>2016-03-13T13:51:30Z</time>
      </trkpt>
      <trkpt lat="43.73183" lon="3.55326">
        <ele>51.6972550806</ele>
        <time>2016-03-13T13:51:30Z</time>
      </trkpt>
      <trkpt lat="43.73163" lon="3.55322">
        <ele>51.335404714867</ele>
        <time>2016-03-13T13:51:43Z</time>
      </trkpt>
      <trkpt lat="43.73161" lon="3.55318">
        <ele>51.335404714867</ele>
        <time>2016-03-13T13:51:45Z</time>
      </trkpt>
      <trkpt lat="43.73124" lon="3.55306">
        <ele>50.762490525978</ele>
        <time>2016-03-13T13:52:20Z</time>
      </trkpt>
      <trkpt lat="43.73068" lon="3.5529">
        <ele>50.039962890258</ele>
        <time>2016-03-13T13:52:57Z</time>
      </trkpt>
      <trkpt lat="43.73055" lon="3.55285">
        <ele>49.513642200069</ele>
        <time>2016-03-13T13:53:06Z</time>
      </trkpt>
      <trkpt lat="43.72984" lon="3.55251">
        <ele>48.739863468125</ele>
        <time>2016-03-13T13:54:04Z</time>
      </trkpt>
      <trkpt lat="43.72982" lon="3.55245">
        <ele>48.739863468125</ele>
        <time>2016-03-13T13:54:08Z</time>
      </trkpt>
      <trkpt lat="43.72953" lon="3.55234">
        <ele>48.533464551065</ele>
        <time>2016-03-13T13:54:28Z</time>
      </trkpt>
      <trkpt lat="43.72923" lon="3.55192">
        <ele>48.668164056288</ele>
        <time>2016-03-13T13:55:00Z</time>
      </trkpt>
      <trkpt lat="43.7292" lon="3.5519">
        <ele>48.668164056288</ele>
        <time>2016-03-13T13:55:00Z</time>
      </trkpt>
      <trkpt lat="43.72887" lon="3.55172">
        <ele>49.120990136596</ele>
        <time>2016-03-13T13:55:30Z</time>
      </trkpt>
      <trkpt lat="43.72867" lon="3.55148">
        <ele>49.769201475554</ele>
        <time>2016-03-13T13:55:41Z</time>
      </trkpt>
      <trkpt lat="43.72862" lon="3.55144">
        <ele>49.769201475554</ele>
        <time>2016-03-13T13:55:45Z</time>
      </trkpt>
      <trkpt lat="43.72848" lon="3.55127">
        <ele>50.527675097687</ele>
        <time>2016-03-13T13:56:12Z</time>
      </trkpt>
      <trkpt lat="43.72836" lon="3.55115">
        <ele>51.418451539238</ele>
        <time>2016-03-13T13:56:12Z</time>
      </trkpt>
      <trkpt lat="43.72826" lon="3.55105">
        <ele>52.389880910809</ele>
        <time>2016-03-13T13:56:23Z</time>
      </trkpt>
      <trkpt lat="43.72823" lon="3.55103">
        <ele>52.389880910809</ele>
        <time>2016-03-13T13:56:30Z</time>
      </trkpt>
      <trkpt lat="43.72791" lon="3.55083">
        <ele>53.653649462066</ele>
        <time>2016-03-13T13:56:55Z</time>
      </trkpt>
      <trkpt lat="43.72784" lon="3.55075">
        <ele>53.653649462066</ele>
        <time>2016-03-13T13:56:55Z</time>
      </trkpt>
      <trkpt lat="43.72772" lon="3.55068">
        <ele>54.85783020515</ele>
        <time>2016-03-13T13:57:12Z</time>
      </trkpt>
      <trkpt lat="43.72761" lon="3.55058">
        <ele>56.066005811301</ele>
        <time>2016-03-13T13:57:12Z</time>
      </trkpt>
      <trkpt lat="43.72753" lon="3.5505">
        <ele>57.251009220794</ele>
        <time>2016-03-13T13:57:29Z</time>
      </trkpt>
      <trkpt lat="43.72739" lon="3.55044">
        <ele>58.330495617007</ele>
        <time>2016-03-13T13:57:29Z</time>
      </trkpt>
      <trkpt lat="43.72723" lon="3.55037">
        <ele>59.387398538396</ele>
        <time>2016-03-13T13:57:42Z</time>
      </trkpt>
      <trkpt lat="43.72719" lon="3.55037">
        <ele>59.387398538396</ele>
        <time>2016-03-13T13:57:50Z</time>
      </trkpt>
      <trkpt lat="43.72713" lon="3.55034">
        <ele>60.28286978011</ele>
        <time>2016-03-13T13:57:50Z</time>
      </trkpt>
      <trkpt lat="43.72659" lon="3.55016">
        <ele>60.860305688712</ele>
        <time>2016-03-13T13:58:43Z</time>
      </trkpt>
      <trkpt lat="43.72649" lon="3.55014">
        <ele>61.59558939741</ele>
        <time>2016-03-13T13:58:45Z</time>
      </trkpt>
      <trkpt lat="43.72646" lon="3.55012">
        <ele>61.59558939741</ele>
        <time>2016-03-13T13:59:00Z</time>
      </trkpt>
      <trkpt lat="43.72601" lon="3.55013">
        <ele>62.526101226224</ele>
        <time>2016-03-13T13:59:35Z</time>
      </trkpt>
      <trkpt lat="43.72592" lon="3.55013">
        <ele>62.526101226224</ele>
        <time>2016-03-13T13:59:40Z</time>
      </trkpt>
      <trkpt lat="43.72424" lon="3.55062">
        <ele>63.931322575193</ele>
        <time>2016-03-13T14:02:00Z</time>
      </trkpt>
      <trkpt lat="43.72387" lon="3.55118">
        <ele>65.925164487163</ele>
        <time>2016-03-13T14:02:45Z</time>
      </trkpt>
      <trkpt lat="43.72379" lon="3.55125">
        <ele>67.920187060062</ele>
        <time>2016-03-13T14:02:50Z</time>
      </trkpt>
      <trkpt lat="43.72374" lon="3.55129">
        <ele>67.920187060062</ele>
        <time>2016-03-13T14:02:55Z</time>
      </trkpt>
      <trkpt lat="43.72373" lon="3.55129">
        <ele>67.920187060062</ele>
        <time>2016-03-13T14:03:00Z</time>
      </trkpt>
      <trkpt lat="43.72379" lon="3.55132">
        <ele>70.265991664299</ele>
        <time>2016-03-13T14:03:05Z</time>
      </trkpt>
    </trkseg>
  </trk>
</gpx>